sensor_id;sensor_type;location;lat;lon;timestamp;pressure;altitude;pressure_sealevel;temperature;humidity
59877;BME280;45749;51.140;17.184;2023-02-08T00:01:16;102785.97;;;-1.68;82.89
59877;BME280;45749;51.140;17.184;2023-02-08T00:03:42;102794.63;;;-1.66;82.59
59877;BME280;45749;51.140;17.184;2023-02-08T00:06:08;102792.03;;;-1.68;82.49
59877;BME280;45749;51.140;17.184;2023-02-08T00:08:33;102792.84;;;-1.69;82.52
59877;BME280;45749;51.140;17.184;2023-02-08T00:11:00;102796.31;;;-1.68;82.63
59877;BME280;45749;51.140;17.184;2023-02-08T00:13:25;102803.22;;;-1.69;82.56
59877;BME280;45749;51.140;17.184;2023-02-08T00:15:51;102804.94;;;-1.69;82.71
59877;BME280;45749;51.140;17.184;2023-02-08T00:18:16;102813.56;;;-1.70;82.76
59877;BME280;45749;51.140;17.184;2023-02-08T00:20:42;102805.81;;;-1.69;82.92
59877;BME280;45749;51.140;17.184;2023-02-08T00:23:07;102805.81;;;-1.69;82.97
59877;BME280;45749;51.140;17.184;2023-02-08T00:25:33;102808.44;;;-1.67;83.05
59877;BME280;45749;51.140;17.184;2023-02-08T00:27:58;102807.59;;;-1.66;82.92
59877;BME280;45749;51.140;17.184;2023-02-08T00:30:24;102809.25;;;-1.70;82.75
59877;BME280;45749;51.140;17.184;2023-02-08T00:32:49;102815.28;;;-1.69;83.15
59877;BME280;45749;51.140;17.184;2023-02-08T00:35:14;102822.16;;;-1.71;83.48
59877;BME280;45749;51.140;17.184;2023-02-08T00:37:40;102822.13;;;-1.73;83.25
59877;BME280;45749;51.140;17.184;2023-02-08T00:40:05;102829.03;;;-1.73;83.35
59877;BME280;45749;51.140;17.184;2023-02-08T00:42:30;102828.19;;;-1.72;83.35
59877;BME280;45749;51.140;17.184;2023-02-08T00:44:56;102828.13;;;-1.75;83.05
59877;BME280;45749;51.140;17.184;2023-02-08T00:47:23;102824.59;;;-1.79;83.14
59877;BME280;45749;51.140;17.184;2023-02-08T00:49:48;102825.47;;;-1.80;82.87
59877;BME280;45749;51.140;17.184;2023-02-08T00:52:13;102823.69;;;-1.82;82.75
59877;BME280;45749;51.140;17.184;2023-02-08T00:54:39;102818.50;;;-1.84;82.54
59877;BME280;45749;51.140;17.184;2023-02-08T00:57:06;102816.72;;;-1.85;82.81
59877;BME280;45749;51.140;17.184;2023-02-08T00:59:31;102814.19;;;-1.83;82.76
59877;BME280;45749;51.140;17.184;2023-02-08T01:01:56;102817.69;;;-1.80;82.92
59877;BME280;45749;51.140;17.184;2023-02-08T01:04:21;102807.34;;;-1.78;82.90
59877;BME280;45749;51.140;17.184;2023-02-08T01:06:47;102811.66;;;-1.79;82.68
59877;BME280;45749;51.140;17.184;2023-02-08T01:09:12;102804.75;;;-1.78;82.89
59877;BME280;45749;51.140;17.184;2023-02-08T01:11:37;102803.03;;;-1.78;82.84
59877;BME280;45749;51.140;17.184;2023-02-08T01:14:02;102805.63;;;-1.78;82.64
59877;BME280;45749;51.140;17.184;2023-02-08T01:16:29;102812.53;;;-1.78;82.54
59877;BME280;45749;51.140;17.184;2023-02-08T01:18:56;102810.81;;;-1.78;82.89
59877;BME280;45749;51.140;17.184;2023-02-08T01:21:22;102806.53;;;-1.77;82.48
59877;BME280;45749;51.140;17.184;2023-02-08T01:23:48;102803.03;;;-1.79;82.38
59877;BME280;45749;51.140;17.184;2023-02-08T01:26:14;102809.06;;;-1.80;82.02
59877;BME280;45749;51.140;17.184;2023-02-08T01:28:40;102804.72;;;-1.81;82.01
59877;BME280;45749;51.140;17.184;2023-02-08T01:31:06;102794.34;;;-1.83;81.84
59877;BME280;45749;51.140;17.184;2023-02-08T01:33:32;102802.97;;;-1.82;81.97
59877;BME280;45749;51.140;17.184;2023-02-08T01:35:57;102790.88;;;-1.83;82.11
59877;BME280;45749;51.140;17.184;2023-02-08T01:38:22;102792.59;;;-1.84;82.23
59877;BME280;45749;51.140;17.184;2023-02-08T01:40:48;102794.34;;;-1.81;82.47
59877;BME280;45749;51.140;17.184;2023-02-08T01:43:24;102795.25;;;-1.81;82.34
59877;BME280;45749;51.140;17.184;2023-02-08T01:45:50;102792.59;;;-1.84;82.08
59877;BME280;45749;51.140;17.184;2023-02-08T01:48:19;102793.47;;;-1.83;82.37
59877;BME280;45749;51.140;17.184;2023-02-08T01:50:49;102799.53;;;-1.83;82.36
59877;BME280;45749;51.140;17.184;2023-02-08T01:53:16;102797.78;;;-1.82;82.46
59877;BME280;45749;51.140;17.184;2023-02-08T01:55:43;102796.13;;;-1.79;82.74
59877;BME280;45749;51.140;17.184;2023-02-08T01:58:11;102798.75;;;-1.77;82.51
59877;BME280;45749;51.140;17.184;2023-02-08T02:00:37;102788.41;;;-1.77;82.04
59877;BME280;45749;51.140;17.184;2023-02-08T02:03:03;102794.41;;;-1.78;82.04
59877;BME280;45749;51.140;17.184;2023-02-08T02:05:31;102790.94;;;-1.80;81.89
59877;BME280;45749;51.140;17.184;2023-02-08T02:07:58;102790.94;;;-1.80;82.23
59877;BME280;45749;51.140;17.184;2023-02-08T02:10:28;102787.50;;;-1.81;82.20
59877;BME280;45749;51.140;17.184;2023-02-08T02:12:54;102776.25;;;-1.81;82.26
59877;BME280;45749;51.140;17.184;2023-02-08T02:15:21;102780.59;;;-1.79;82.55
59877;BME280;45749;51.140;17.184;2023-02-08T02:17:46;102775.47;;;-1.77;82.34
59877;BME280;45749;51.140;17.184;2023-02-08T02:35:45;102770.25;;;-1.80;81.54
59877;BME280;45749;51.140;17.184;2023-02-08T02:38:28;102765.00;;;-1.83;81.06
59877;BME280;45749;51.140;17.184;2023-02-08T02:41:12;102759.81;;;-1.83;81.24
59877;BME280;45749;51.140;17.184;2023-02-08T02:44:01;102766.75;;;-1.82;81.67
59877;BME280;45749;51.140;17.184;2023-02-08T02:48:57;102781.41;;;-1.83;81.37
59877;BME280;45749;51.140;17.184;2023-02-08T02:51:37;102776.22;;;-1.83;81.13
59877;BME280;45749;51.140;17.184;2023-02-08T02:54:18;102766.75;;;-1.82;81.15
59877;BME280;45749;51.140;17.184;2023-02-08T02:56:45;102771.91;;;-1.82;81.00
59877;BME280;45749;51.140;17.184;2023-02-08T02:59:13;102773.66;;;-1.81;81.41
59877;BME280;45749;51.140;17.184;2023-02-08T03:01:40;102765.94;;;-1.80;81.16
59877;BME280;45749;51.140;17.184;2023-02-08T03:06:46;102766.78;;;-1.79;81.29
59877;BME280;45749;51.140;17.184;2023-02-08T03:09:29;102762.47;;;-1.80;81.05
59877;BME280;45749;51.140;17.184;2023-02-08T03:12:00;102765.94;;;-1.80;81.51
59877;BME280;45749;51.140;17.184;2023-02-08T03:14:32;102770.25;;;-1.79;81.57
59877;BME280;45749;51.140;17.184;2023-02-08T03:17:04;102771.13;;;-1.78;81.24
59877;BME280;45749;51.140;17.184;2023-02-08T03:22:11;102767.66;;;-1.79;81.12
59877;BME280;45749;51.140;17.184;2023-02-08T03:24:57;102771.97;;;-1.78;81.06
59877;BME280;45749;51.140;17.184;2023-02-08T03:35:08;102785.84;;;-1.76;81.50
59877;BME280;45749;51.140;17.184;2023-02-08T03:37:36;102790.19;;;-1.73;81.56
59877;BME280;45749;51.140;17.184;2023-02-08T03:40:06;102794.53;;;-1.72;81.61
59877;BME280;45749;51.140;17.184;2023-02-08T03:42:34;102795.44;;;-1.70;81.87
59877;BME280;45749;51.140;17.184;2023-02-08T03:45:04;102797.22;;;-1.66;81.75
59877;BME280;45749;51.140;17.184;2023-02-08T03:47:33;102804.19;;;-1.63;81.80
59877;BME280;45749;51.140;17.184;2023-02-08T03:50:00;102808.56;;;-1.61;81.81
59877;BME280;45749;51.140;17.184;2023-02-08T03:52:27;102801.66;;;-1.59;81.56
59877;BME280;45749;51.140;17.184;2023-02-08T03:54:59;102806.00;;;-1.58;81.63
59877;BME280;45749;51.140;17.184;2023-02-08T03:57:29;102802.56;;;-1.57;81.50
59877;BME280;45749;51.140;17.184;2023-02-08T04:00:00;102802.56;;;-1.55;82.02
59877;BME280;45749;51.140;17.184;2023-02-08T04:02:27;102809.53;;;-1.53;81.84
59877;BME280;45749;51.140;17.184;2023-02-08T04:04:53;102806.13;;;-1.50;81.70
59877;BME280;45749;51.140;17.184;2023-02-08T04:07:19;102815.63;;;-1.49;81.68
59877;BME280;45749;51.140;17.184;2023-02-08T04:09:45;102813.91;;;-1.49;81.66
59877;BME280;45749;51.140;17.184;2023-02-08T04:12:11;102816.50;;;-1.50;81.65
59877;BME280;45749;51.140;17.184;2023-02-08T04:14:36;102812.19;;;-1.50;81.88
59877;BME280;45749;51.140;17.184;2023-02-08T04:17:01;102805.31;;;-1.48;81.92
59877;BME280;45749;51.140;17.184;2023-02-08T04:19:27;102805.31;;;-1.46;81.75
59877;BME280;45749;51.140;17.184;2023-02-08T04:21:52;102803.59;;;-1.47;81.54
59877;BME280;45749;51.140;17.184;2023-02-08T04:24:18;102804.34;;;-1.53;81.42
59877;BME280;45749;51.140;17.184;2023-02-08T04:26:44;102809.53;;;-1.53;81.96
59877;BME280;45749;51.140;17.184;2023-02-08T04:29:09;102802.69;;;-1.51;82.14
59877;BME280;45749;51.140;17.184;2023-02-08T04:31:34;102815.69;;;-1.48;81.91
59877;BME280;45749;51.140;17.184;2023-02-08T04:33:59;102804.47;;;-1.47;82.21
59877;BME280;45749;51.140;17.184;2023-02-08T04:36:25;102800.13;;;-1.48;82.20
59877;BME280;45749;51.140;17.184;2023-02-08T04:38:50;102807.91;;;-1.48;82.07
59877;BME280;45749;51.140;17.184;2023-02-08T04:41:15;102805.25;;;-1.51;82.18
59877;BME280;45749;51.140;17.184;2023-02-08T04:43:41;102802.63;;;-1.52;82.61
59877;BME280;45749;51.140;17.184;2023-02-08T04:46:06;102804.34;;;-1.53;82.29
59877;BME280;45749;51.140;17.184;2023-02-08T04:48:31;102817.31;;;-1.53;82.64
59877;BME280;45749;51.140;17.184;2023-02-08T04:50:57;102815.59;;;-1.52;82.65
59877;BME280;45749;51.140;17.184;2023-02-08T04:53:23;102813.03;;;-1.51;82.86
59877;BME280;45749;51.140;17.184;2023-02-08T04:55:48;102810.44;;;-1.51;82.65
59877;BME280;45749;51.140;17.184;2023-02-08T04:58:14;102813.91;;;-1.50;82.72
59877;BME280;45749;51.140;17.184;2023-02-08T05:00:39;102802.69;;;-1.49;82.79
59877;BME280;45749;51.140;17.184;2023-02-08T05:03:04;102807.91;;;-1.46;82.94
59877;BME280;45749;51.140;17.184;2023-02-08T05:05:30;102800.19;;;-1.45;82.96
59877;BME280;45749;51.140;17.184;2023-02-08T05:07:55;102789.84;;;-1.45;83.26
59877;BME280;45749;51.140;17.184;2023-02-08T05:10:21;102776.88;;;-1.45;83.02
59877;BME280;45749;51.140;17.184;2023-02-08T05:12:46;102778.56;;;-1.47;82.87
59877;BME280;45749;51.140;17.184;2023-02-08T05:15:12;102781.97;;;-1.51;82.44
59877;BME280;45749;51.140;17.184;2023-02-08T05:17:37;102782.78;;;-1.52;82.68
59877;BME280;45749;51.140;17.184;2023-02-08T05:20:03;102782.72;;;-1.55;82.54
59877;BME280;45749;51.140;17.184;2023-02-08T05:22:28;102791.31;;;-1.59;82.43
59877;BME280;45749;51.140;17.184;2023-02-08T05:24:53;102796.41;;;-1.62;82.79
59877;BME280;45749;51.140;17.184;2023-02-08T05:27:19;102791.19;;;-1.65;82.77
59877;BME280;45749;51.140;17.184;2023-02-08T05:29:44;102792.84;;;-1.70;82.52
59877;BME280;45749;51.140;17.184;2023-02-08T05:32:10;102801.41;;;-1.74;82.79
59877;BME280;45749;51.140;17.184;2023-02-08T05:34:36;102795.31;;;-1.76;82.82
59877;BME280;45749;51.140;17.184;2023-02-08T05:37:01;102804.75;;;-1.78;82.93
59877;BME280;45749;51.140;17.184;2023-02-08T05:39:26;102815.97;;;-1.79;82.80
59877;BME280;45749;51.140;17.184;2023-02-08T05:41:51;102806.47;;;-1.80;82.72
59877;BME280;45749;51.140;17.184;2023-02-08T05:44:17;102811.59;;;-1.83;82.68
59877;BME280;45749;51.140;17.184;2023-02-08T05:46:42;102818.38;;;-1.89;82.46
59877;BME280;45749;51.140;17.184;2023-02-08T05:49:07;102823.50;;;-1.93;82.82
59877;BME280;45749;51.140;17.184;2023-02-08T05:51:33;102818.22;;;-1.98;82.70
59877;BME280;45749;51.140;17.184;2023-02-08T05:53:58;102812.97;;;-2.01;82.95
59877;BME280;45749;51.140;17.184;2023-02-08T05:56:24;102815.47;;;-2.05;83.02
59877;BME280;45749;51.140;17.184;2023-02-08T05:58:50;102821.47;;;-2.08;82.86
59877;BME280;45749;51.140;17.184;2023-02-08T06:01:15;102815.34;;;-2.13;82.87
59877;BME280;45749;51.140;17.184;2023-02-08T06:03:40;102818.72;;;-2.17;82.82
59877;BME280;45749;51.140;17.184;2023-02-08T06:06:06;102815.22;;;-2.19;82.96
59877;BME280;45749;51.140;17.184;2023-02-08T06:08:31;102820.34;;;-2.22;82.86
59877;BME280;45749;51.140;17.184;2023-02-08T06:10:57;102823.72;;;-2.26;83.07
59877;BME280;45749;51.140;17.184;2023-02-08T06:13:22;102823.59;;;-2.31;83.08
59877;BME280;45749;51.140;17.184;2023-02-08T06:15:47;102813.16;;;-2.36;83.09
59877;BME280;45749;51.140;17.184;2023-02-08T06:18:13;102813.97;;;-2.40;83.40
59877;BME280;45749;51.140;17.184;2023-02-08T06:20:38;102815.56;;;-2.45;83.27
59877;BME280;45749;51.140;17.184;2023-02-08T06:23:03;102818.06;;;-2.48;83.37
59877;BME280;45749;51.140;17.184;2023-02-08T06:25:29;102822.28;;;-2.53;83.53
59877;BME280;45749;51.140;17.184;2023-02-08T06:27:54;102814.47;;;-2.56;83.72
59877;BME280;45749;51.140;17.184;2023-02-08T06:30:20;102820.41;;;-2.60;83.64
59877;BME280;45749;51.140;17.184;2023-02-08T06:32:45;102818.63;;;-2.63;84.04
59877;BME280;45749;51.140;17.184;2023-02-08T06:35:10;102823.75;;;-2.64;83.89
59877;BME280;45749;51.140;17.184;2023-02-08T06:37:36;102827.13;;;-2.68;83.91
59877;BME280;45749;51.140;17.184;2023-02-08T06:40:01;102826.22;;;-2.70;83.90
59877;BME280;45749;51.140;17.184;2023-02-08T06:42:27;102822.75;;;-2.72;84.12
59877;BME280;45749;51.140;17.184;2023-02-08T06:44:52;102828.78;;;-2.72;84.05
59877;BME280;45749;51.140;17.184;2023-02-08T06:47:20;102833.88;;;-2.73;84.00
59877;BME280;45749;51.140;17.184;2023-02-08T06:49:45;102832.16;;;-2.74;84.17
59877;BME280;45749;51.140;17.184;2023-02-08T06:52:10;102836.38;;;-2.78;84.39
59877;BME280;45749;51.140;17.184;2023-02-08T06:54:36;102835.53;;;-2.78;84.36
59877;BME280;45749;51.140;17.184;2023-02-08T06:57:01;102840.69;;;-2.78;84.54
59877;BME280;45749;51.140;17.184;2023-02-08T06:59:26;102841.56;;;-2.78;84.68
59877;BME280;45749;51.140;17.184;2023-02-08T07:01:51;102857.06;;;-2.78;84.86
59877;BME280;45749;51.140;17.184;2023-02-08T07:04:17;102859.66;;;-2.76;84.75
59877;BME280;45749;51.140;17.184;2023-02-08T07:06:42;102857.13;;;-2.75;84.88
59877;BME280;45749;51.140;17.184;2023-02-08T07:09:07;102869.25;;;-2.72;85.01
59877;BME280;45749;51.140;17.184;2023-02-08T07:11:32;102873.59;;;-2.71;84.75
59877;BME280;45749;51.140;17.184;2023-02-08T07:13:58;102872.66;;;-2.73;84.75
59877;BME280;45749;51.140;17.184;2023-02-08T07:16:23;102868.41;;;-2.71;85.18
59877;BME280;45749;51.140;17.184;2023-02-08T07:18:48;102876.25;;;-2.68;85.37
59877;BME280;45749;51.140;17.184;2023-02-08T07:21:14;102877.16;;;-2.66;85.20
59877;BME280;45749;51.140;17.184;2023-02-08T07:23:40;102879.75;;;-2.65;85.34
59877;BME280;45749;51.140;17.184;2023-02-08T07:26:08;102882.41;;;-2.63;85.54
59877;BME280;45749;51.140;17.184;2023-02-08T07:28:34;102879.81;;;-2.63;85.83
59877;BME280;45749;51.140;17.184;2023-02-08T07:31:03;102883.28;;;-2.61;85.96
59877;BME280;45749;51.140;17.184;2023-02-08T07:33:29;102880.69;;;-2.61;86.12
59877;BME280;45749;51.140;17.184;2023-02-08T07:35:54;102891.97;;;-2.59;86.27
59877;BME280;45749;51.140;17.184;2023-02-08T07:38:19;102896.28;;;-2.58;86.39
59877;BME280;45749;51.140;17.184;2023-02-08T07:40:45;102894.63;;;-2.56;86.66
59877;BME280;45749;51.140;17.184;2023-02-08T07:43:10;102892.09;;;-2.53;86.46
59877;BME280;45749;51.140;17.184;2023-02-08T07:45:38;102899.09;;;-2.49;86.63
59877;BME280;45749;51.140;17.184;2023-02-08T07:48:03;102891.41;;;-2.46;86.94
59877;BME280;45749;51.140;17.184;2023-02-08T07:50:29;102901.81;;;-2.43;86.98
59877;BME280;45749;51.140;17.184;2023-02-08T07:52:54;102910.50;;;-2.39;87.17
59877;BME280;45749;51.140;17.184;2023-02-08T07:55:19;102898.47;;;-2.37;87.31
59877;BME280;45749;51.140;17.184;2023-02-08T07:57:45;102908.94;;;-2.32;87.45
59877;BME280;45749;51.140;17.184;2023-02-08T08:00:12;102908.16;;;-2.28;87.30
59877;BME280;45749;51.140;17.184;2023-02-08T08:02:37;102916.84;;;-2.25;87.30
59877;BME280;45749;51.140;17.184;2023-02-08T08:05:03;102910.88;;;-2.21;87.65
59877;BME280;45749;51.140;17.184;2023-02-08T08:07:28;102912.69;;;-2.18;87.58
59877;BME280;45749;51.140;17.184;2023-02-08T08:09:53;102916.19;;;-2.15;87.55
59877;BME280;45749;51.140;17.184;2023-02-08T08:12:19;102920.63;;;-2.10;87.81
59877;BME280;45749;51.140;17.184;2023-02-08T08:14:44;102915.47;;;-2.07;87.76
59877;BME280;45749;51.140;17.184;2023-02-08T08:17:10;102913.84;;;-2.04;87.76
59877;BME280;45749;51.140;17.184;2023-02-08T08:19:35;102916.53;;;-1.99;87.94
59877;BME280;45749;51.140;17.184;2023-02-08T08:22:00;102914.88;;;-1.96;87.84
59877;BME280;45749;51.140;17.184;2023-02-08T08:24:25;102913.25;;;-1.91;88.19
59877;BME280;45749;51.140;17.184;2023-02-08T08:26:51;102910.75;;;-1.86;87.84
59877;BME280;45749;51.140;17.184;2023-02-08T08:29:16;102901.34;;;-1.82;87.94
59877;BME280;45749;51.140;17.184;2023-02-08T08:31:42;102902.25;;;-1.79;88.11
59877;BME280;45749;51.140;17.184;2023-02-08T08:34:07;102902.38;;;-1.74;88.09
59877;BME280;45749;51.140;17.184;2023-02-08T08:36:33;102899.00;;;-1.70;88.20
59877;BME280;45749;51.140;17.184;2023-02-08T08:38:58;102909.44;;;-1.66;88.02
59877;BME280;45749;51.140;17.184;2023-02-08T08:41:23;102906.91;;;-1.62;88.13
59877;BME280;45749;51.140;17.184;2023-02-08T08:43:51;102906.09;;;-1.58;88.00
59877;BME280;45749;51.140;17.184;2023-02-08T08:46:16;102898.38;;;-1.57;87.96
59877;BME280;45749;51.140;17.184;2023-02-08T08:48:41;102902.75;;;-1.53;87.83
59877;BME280;45749;51.140;17.184;2023-02-08T08:51:07;102900.22;;;-1.51;87.83
59877;BME280;45749;51.140;17.184;2023-02-08T08:53:32;102903.72;;;-1.48;88.11
59877;BME280;45749;51.140;17.184;2023-02-08T08:55:57;102902.09;;;-1.43;87.85
59877;BME280;45749;51.140;17.184;2023-02-08T08:58:23;102901.28;;;-1.38;87.89
59877;BME280;45749;51.140;17.184;2023-02-08T09:00:48;102903.09;;;-1.34;88.01
59877;BME280;45749;51.140;17.184;2023-02-08T09:03:13;102900.56;;;-1.31;88.03
59877;BME280;45749;51.140;17.184;2023-02-08T09:05:39;102908.41;;;-1.27;87.72
59877;BME280;45749;51.140;17.184;2023-02-08T09:08:04;102911.06;;;-1.24;87.68
59877;BME280;45749;51.140;17.184;2023-02-08T09:10:30;102907.72;;;-1.18;88.10
59877;BME280;45749;51.140;17.184;2023-02-08T09:12:56;102909.50;;;-1.14;87.76
59877;BME280;45749;51.140;17.184;2023-02-08T09:15:21;102906.97;;;-1.09;87.82
59877;BME280;45749;51.140;17.184;2023-02-08T09:17:46;102904.47;;;-1.05;87.81
59877;BME280;45749;51.140;17.184;2023-02-08T09:20:12;102905.41;;;-1.01;87.67
59877;BME280;45749;51.140;17.184;2023-02-08T09:22:37;102902.00;;;-0.97;87.74
59877;BME280;45749;51.140;17.184;2023-02-08T09:25:02;102909.00;;;-0.91;87.75
59877;BME280;45749;51.140;17.184;2023-02-08T09:27:28;102910.81;;;-0.87;87.34
59877;BME280;45749;51.140;17.184;2023-02-08T09:29:54;102907.41;;;-0.83;87.59
59877;BME280;45749;51.140;17.184;2023-02-08T09:32:19;102915.22;;;-0.80;87.24
59877;BME280;45749;51.140;17.184;2023-02-08T09:34:46;102915.28;;;-0.77;87.09
59877;BME280;45749;51.140;17.184;2023-02-08T09:37:11;102906.66;;;-0.76;87.30
59877;BME280;45749;51.140;17.184;2023-02-08T09:39:36;102902.34;;;-0.76;86.92
59877;BME280;45749;51.140;17.184;2023-02-08T09:44:31;102904.97;;;-0.74;86.98
59877;BME280;45749;51.140;17.184;2023-02-08T09:49:36;102907.66;;;-0.68;86.85
59877;BME280;45749;51.140;17.184;2023-02-08T09:52:08;102905.06;;;-0.66;86.79
59877;BME280;45749;51.140;17.184;2023-02-08T09:54:42;102901.66;;;-0.64;87.19
59877;BME280;45749;51.140;17.184;2023-02-08T09:57:12;102898.25;;;-0.60;87.20
59877;BME280;45749;51.140;17.184;2023-02-08T09:59:40;102900.06;;;-0.56;86.76
59877;BME280;45749;51.140;17.184;2023-02-08T10:02:13;102888.81;;;-0.53;86.94
59877;BME280;45749;51.140;17.184;2023-02-08T10:07:23;102896.69;;;-0.49;86.78
59877;BME280;45749;51.140;17.184;2023-02-08T10:09:48;102901.03;;;-0.48;86.23
59877;BME280;45749;51.140;17.184;2023-02-08T10:30:54;102888.28;;;-0.31;86.65
59877;BME280;45749;51.140;17.184;2023-02-08T10:36:24;102881.47;;;-0.22;86.64
59877;BME280;45749;51.140;17.184;2023-02-08T10:38:51;102878.88;;;-0.22;86.11
59877;BME280;45749;51.140;17.184;2023-02-08T10:41:19;102878.03;;;-0.21;86.39
59877;BME280;45749;51.140;17.184;2023-02-08T10:43:48;102874.56;;;-0.20;86.34
59877;BME280;45749;51.140;17.184;2023-02-08T10:51:32;102869.47;;;-0.16;86.38
59877;BME280;45749;51.140;17.184;2023-02-08T10:53:57;102875.56;;;-0.11;86.76
59877;BME280;45749;51.140;17.184;2023-02-08T10:58:50;102866.97;;;-0.04;86.18
59877;BME280;45749;51.140;17.184;2023-02-08T11:01:16;102864.44;;;-0.01;86.40
59877;BME280;45749;51.140;17.184;2023-02-08T11:03:59;102854.94;;;0.03;86.56
59877;BME280;45749;51.140;17.184;2023-02-08T11:06:25;102869.66;;;0.03;86.12
59877;BME280;45749;51.140;17.184;2023-02-08T11:08:56;102856.72;;;0.04;86.43
59877;BME280;45749;51.140;17.184;2023-02-08T11:11:25;102857.63;;;0.08;86.53
59877;BME280;45749;51.140;17.184;2023-02-08T11:13:54;102857.66;;;0.11;86.16
59877;BME280;45749;51.140;17.184;2023-02-08T11:16:29;102857.66;;;0.12;86.54
59877;BME280;45749;51.140;17.184;2023-02-08T11:18:58;102852.50;;;0.14;86.33
59877;BME280;45749;51.140;17.184;2023-02-08T11:23:53;102843.91;;;0.21;86.44
59877;BME280;45749;51.140;17.184;2023-02-08T11:26:41;102842.22;;;0.26;86.45
59877;BME280;45749;51.140;17.184;2023-02-08T11:29:15;102831.00;;;0.29;86.49
59877;BME280;45749;51.140;17.184;2023-02-08T11:31:55;102833.66;;;0.33;86.36
59877;BME280;45749;51.140;17.184;2023-02-08T11:34:28;102831.91;;;0.35;86.07
59877;BME280;45749;51.140;17.184;2023-02-08T11:36:53;102823.28;;;0.38;86.44
59877;BME280;45749;51.140;17.184;2023-02-08T11:39:24;102819.88;;;0.45;86.71
59877;BME280;45749;51.140;17.184;2023-02-08T11:41:51;102815.66;;;0.53;86.17
59877;BME280;45749;51.140;17.184;2023-02-08T11:44:22;102818.31;;;0.59;85.77
59877;BME280;45749;51.140;17.184;2023-02-08T11:46:49;102817.50;;;0.66;85.93
59877;BME280;45749;51.140;17.184;2023-02-08T11:49:38;102812.34;;;0.76;86.37
59877;BME280;45749;51.140;17.184;2023-02-08T11:52:05;102817.63;;;0.88;85.69
59877;BME280;45749;51.140;17.184;2023-02-08T11:57:00;102819.50;;;1.03;85.57
59877;BME280;45749;51.140;17.184;2023-02-08T11:59:29;102811.75;;;1.09;85.55
59877;BME280;45749;51.140;17.184;2023-02-08T12:01:54;102805.69;;;1.13;85.34
59877;BME280;45749;51.140;17.184;2023-02-08T12:04:20;102811.78;;;1.21;85.34
59877;BME280;45749;51.140;17.184;2023-02-08T12:17:21;102813.47;;;1.10;83.63
59877;BME280;45749;51.140;17.184;2023-02-08T12:29:40;102806.41;;;0.92;84.00
59877;BME280;45749;51.140;17.184;2023-02-08T12:51:02;102789.94;;;0.90;84.00
59877;BME280;45749;51.140;17.184;2023-02-08T12:53:30;102793.41;;;0.89;83.80
59877;BME280;45749;51.140;17.184;2023-02-08T12:55:59;102788.19;;;0.90;83.27
59877;BME280;45749;51.140;17.184;2023-02-08T13:00:59;102789.03;;;0.88;83.71
59877;BME280;45749;51.140;17.184;2023-02-08T13:06:04;102783.84;;;0.86;83.36
59877;BME280;45749;51.140;17.184;2023-02-08T13:13:54;102782.13;;;0.91;82.62
59877;BME280;45749;51.140;17.184;2023-02-08T13:16:22;102778.69;;;0.92;82.78
59877;BME280;45749;51.140;17.184;2023-02-08T13:21:15;102773.47;;;0.91;82.36
59877;BME280;45749;51.140;17.184;2023-02-08T13:23:42;102774.34;;;0.90;82.72
59877;BME280;45749;51.140;17.184;2023-02-08T13:28:40;102771.75;;;0.94;82.08
59877;BME280;45749;51.140;17.184;2023-02-08T13:31:14;102780.44;;;0.93;82.16
59877;BME280;45749;51.140;17.184;2023-02-08T13:33:42;102769.13;;;0.90;82.39
59877;BME280;45749;51.140;17.184;2023-02-08T13:39:05;102765.66;;;0.88;82.52
59877;BME280;45749;51.140;17.184;2023-02-08T13:41:31;102767.44;;;0.93;82.14
59877;BME280;45749;51.140;17.184;2023-02-08T13:44:00;102762.22;;;0.93;82.24
59877;BME280;45749;51.140;17.184;2023-02-08T13:46:28;102758.78;;;0.96;82.77
59877;BME280;45749;51.140;17.184;2023-02-08T13:48:59;102758.81;;;1.05;82.52
59877;BME280;45749;51.140;17.184;2023-02-08T13:57:04;102770.97;;;1.08;81.40
59877;BME280;45749;51.140;17.184;2023-02-08T13:59:23;102760.59;;;1.09;81.90
59877;BME280;45749;51.140;17.184;2023-02-08T14:04:33;102774.44;;;1.11;81.36
59877;BME280;45749;51.140;17.184;2023-02-08T14:07:04;102764.91;;;1.10;81.39
59877;BME280;45749;51.140;17.184;2023-02-08T14:12:05;102762.31;;;1.10;80.97
59877;BME280;45749;51.140;17.184;2023-02-08T14:14:36;102755.41;;;1.14;81.78
59877;BME280;45749;51.140;17.184;2023-02-08T14:19:27;102753.72;;;1.24;81.51
59877;BME280;45749;51.140;17.184;2023-02-08T14:22:06;102746.78;;;1.24;80.80
59877;BME280;45749;51.140;17.184;2023-02-08T14:24:42;102748.53;;;1.27;80.77
59877;BME280;45749;51.140;17.184;2023-02-08T14:27:22;102745.94;;;1.27;80.43
59877;BME280;45749;51.140;17.184;2023-02-08T14:29:57;102738.97;;;1.24;80.46
59877;BME280;45749;51.140;17.184;2023-02-08T14:32:24;102738.13;;;1.24;80.11
59877;BME280;45749;51.140;17.184;2023-02-08T14:34:57;102733.75;;;1.21;80.13
59877;BME280;45749;51.140;17.184;2023-02-08T14:39:48;102738.09;;;1.19;80.68
59877;BME280;45749;51.140;17.184;2023-02-08T14:42:52;102738.97;;;1.20;80.57
59877;BME280;45749;51.140;17.184;2023-02-08T14:45:02;102729.44;;;1.20;80.19
59877;BME280;45749;51.140;17.184;2023-02-08T14:52:39;102716.38;;;1.14;80.31
59877;BME280;45749;51.140;17.184;2023-02-08T14:55:12;102717.25;;;1.11;80.46
59877;BME280;45749;51.140;17.184;2023-02-08T14:57:39;102716.38;;;1.11;80.55
59877;BME280;45749;51.140;17.184;2023-02-08T15:00:06;102716.38;;;1.09;80.84
59877;BME280;45749;51.140;17.184;2023-02-08T15:02:32;102724.19;;;1.09;80.75
59877;BME280;45749;51.140;17.184;2023-02-08T15:04:59;102723.31;;;1.06;80.62
59877;BME280;45749;51.140;17.184;2023-02-08T15:07:34;102720.69;;;1.06;80.70
59877;BME280;45749;51.140;17.184;2023-02-08T15:10:03;102730.22;;;1.04;80.77
59877;BME280;45749;51.140;17.184;2023-02-08T15:12:29;102724.16;;;1.03;80.76
59877;BME280;45749;51.140;17.184;2023-02-08T15:14:57;102723.25;;;1.01;80.72